Time;durP1;ratioP1;P1;durP2;ratioP2;P2;SDS_P1;SDS_P2;PMS_P1;PMS_P2;Temp;Humidity;BMP_temperature;BMP_pressure;BME280_temperature;BME280_humidity;BME280_pressure;Samples;Min_cycle;Max_cycle;Signal;HPM_P1;HPM_P2
2022/12/16 00:01:36;;;;;;;131.55;68.47;;;;;;;-3.91;100.00;99113.59;5053445;28;20020;-79
2022/12/16 00:04:02;;;;;;;126.40;67.13;;;;;;;-3.85;100.00;99117.84;5053477;28;20479;-79
2022/12/16 00:06:32;;;;;;;119.18;64.55;;;;;;;-3.86;100.00;99103.44;5053265;28;20031;-79
2022/12/16 00:08:58;;;;;;;108.55;56.33;;;;;;;-3.92;100.00;99096.63;5053343;28;20017;-79
2022/12/16 00:11:24;;;;;;;120.53;66.68;;;;;;;-3.78;100.00;99110.22;5053297;28;20032;-79
2022/12/16 00:13:49;;;;;;;131.23;72.07;;;;;;;-3.79;100.00;99097.53;5053401;28;20017;-79
2022/12/16 00:16:17;;;;;;;193.90;107.78;;;;;;;-3.84;100.00;99097.47;5053259;28;20083;-79
2022/12/16 00:18:42;;;;;;;201.48;108.30;;;;;;;-3.80;100.00;99095.78;5051756;28;20059;-79
2022/12/16 00:21:08;;;;;;;161.52;92.53;;;;;;;-3.81;100.00;99089.84;5053220;28;20021;-80
2022/12/16 00:23:34;;;;;;;148.50;87.78;;;;;;;-3.74;100.00;99103.47;5052846;28;20035;-79
2022/12/16 00:26:01;;;;;;;117.22;65.10;;;;;;;-3.75;100.00;99101.75;5053242;28;20025;-79
2022/12/16 00:28:26;;;;;;;105.63;55.75;;;;;;;-3.71;100.00;99111.06;5052967;28;20040;-79
2022/12/16 00:30:53;;;;;;;99.63;53.60;;;;;;;-3.72;100.00;99108.53;5051698;28;20351;-79
2022/12/16 00:33:21;;;;;;;93.00;49.85;;;;;;;-3.73;100.00;99097.50;5053085;28;20071;-79
2022/12/16 00:35:47;;;;;;;84.07;47.00;;;;;;;-3.70;100.00;99105.16;5051490;28;20056;-79
2022/12/16 00:38:13;;;;;;;86.53;48.88;;;;;;;-3.66;100.00;99090.75;5052767;28;20023;-79
2022/12/16 00:40:38;;;;;;;92.57;51.78;;;;;;;-3.66;100.00;99100.94;5052630;28;20025;-79
2022/12/16 00:43:04;;;;;;;98.65;54.58;;;;;;;-3.66;100.00;99098.38;5051551;28;20086;-79
2022/12/16 00:45:29;;;;;;;96.45;53.45;;;;;;;-3.61;100.00;99110.25;5052482;28;20518;-79
2022/12/16 00:47:55;;;;;;;95.68;51.72;;;;;;;-3.60;100.00;99104.31;5052697;28;20021;-79
2022/12/16 00:50:20;;;;;;;100.72;54.28;;;;;;;-3.60;100.00;99088.19;5052750;28;20024;-79
2022/12/16 00:52:46;;;;;;;110.40;58.10;;;;;;;-3.58;100.00;99086.50;5052279;28;20476;-79
2022/12/16 00:55:12;;;;;;;126.07;65.20;;;;;;;-3.61;100.00;99069.53;5052691;28;20357;-79
2022/12/16 00:57:38;;;;;;;124.57;64.85;;;;;;;-3.55;100.00;99071.22;5052406;28;20024;-79
2022/12/16 01:00:04;;;;;;;128.18;62.75;;;;;;;-3.61;100.00;99055.97;5052588;28;20382;-79
2022/12/16 01:02:30;;;;;;;94.88;50.55;;;;;;;-3.56;100.00;99074.63;5052266;28;20017;-79
2022/12/16 01:04:55;;;;;;;79.65;46.92;;;;;;;-3.65;100.00;99054.28;5052429;28;20025;-79
2022/12/16 01:07:21;;;;;;;77.72;42.55;;;;;;;-3.61;100.00;99055.97;5052248;28;20025;-79
2022/12/16 01:09:46;;;;;;;82.10;45.75;;;;;;;-3.64;100.00;99058.50;5052143;28;20032;-79
2022/12/16 01:12:12;;;;;;;74.45;41.70;;;;;;;-3.56;100.00;99062.75;5052397;28;20017;-79
2022/12/16 01:14:37;;;;;;;71.15;41.63;;;;;;;-3.64;100.00;99053.41;5052078;28;20441;-79
2022/12/16 01:17:02;;;;;;;75.75;42.13;;;;;;;-3.56;100.00;99057.66;5052178;28;20461;-79
2022/12/16 01:19:28;;;;;;;75.43;40.42;;;;;;;-3.58;100.00;99046.66;5051926;28;20037;-79
2022/12/16 01:21:53;;;;;;;75.53;41.45;;;;;;;-3.62;100.00;99044.09;5051863;28;20480;-79
2022/12/16 01:24:18;;;;;;;75.30;41.85;;;;;;;-3.58;100.00;99055.94;5050830;28;20020;-79
2022/12/16 01:26:43;;;;;;;77.60;41.58;;;;;;;-3.60;100.00;99043.22;5051885;28;20017;-79
2022/12/16 01:29:09;;;;;;;66.38;39.10;;;;;;;-3.58;100.00;99050.84;5050798;28;20028;-79
2022/12/16 01:31:34;;;;;;;68.00;39.20;;;;;;;-3.57;100.00;99057.66;5051728;28;20017;-79
2022/12/16 01:33:59;;;;;;;64.80;40.22;;;;;;;-3.57;100.00;99058.50;5051865;28;20090;-79
2022/12/16 01:36:25;;;;;;;66.40;39.30;;;;;;;-3.46;100.00;99078.03;5051852;28;20041;-79
2022/12/16 01:38:50;;;;;;;63.28;36.65;;;;;;;-3.48;100.00;99069.56;5051794;28;20021;-79
2022/12/16 01:41:17;;;;;;;66.63;37.83;;;;;;;-3.46;100.00;99058.50;5051912;28;20025;-79
2022/12/16 01:43:44;;;;;;;63.13;36.67;;;;;;;-3.43;100.00;99066.16;5051744;28;20028;-79
2022/12/16 01:46:12;;;;;;;76.85;42.40;;;;;;;-3.40;100.00;99067.84;5051847;28;20033;-79
2022/12/16 01:48:53;;;;;;;76.40;42.13;;;;;;;-3.52;100.00;99035.59;5051336;28;20043;-79
2022/12/16 01:51:41;;;;;;;67.43;38.55;;;;;;;-3.37;100.00;99055.09;5051771;28;20029;-79
2022/12/16 01:54:12;;;;;;;71.82;42.05;;;;;;;-3.37;100.00;99055.09;5051903;28;20029;-79
2022/12/16 01:56:42;;;;;;;77.25;43.85;;;;;;;-3.48;100.00;99027.13;5051553;28;20368;-79
2022/12/16 01:59:10;;;;;;;82.60;45.95;;;;;;;-3.48;99.99;99036.47;5051820;28;20017;-79
2022/12/16 02:01:35;;;;;;;76.55;43.47;;;;;;;-3.48;99.97;99036.47;5051371;28;20036;-79
2022/12/16 02:04:03;;;;;;;77.70;43.78;;;;;;;-3.45;100.00;99042.41;5051723;28;20017;-79
2022/12/16 02:06:32;;;;;;;79.43;45.75;;;;;;;-3.52;100.00;99025.44;5051640;28;20033;-79
2022/12/16 02:09:01;;;;;;;83.05;43.90;;;;;;;-3.48;100.00;99044.09;5051748;28;20020;-79
2022/12/16 02:12:05;;;;;;;81.68;44.45;;;;;;;-3.52;100.00;99036.44;5051736;28;20024;-79
2022/12/16 02:14:45;;;;;;;83.65;45.53;;;;;;;-3.57;100.00;99030.53;5029003;28;20456;-79
2022/12/16 02:17:23;;;;;;;;;;;;;;;-3.56;100.00;99037.28;5029661;28;20376;-79
2022/12/16 02:20:07;;;;;;;88.65;49.28;;;;;;;-3.60;100.00;99029.66;5028916;28;19909;-79
2022/12/16 02:23:02;;;;;;;99.57;51.25;;;;;;;-3.64;100.00;99046.63;5028940;28;20088;-79
2022/12/16 02:25:54;;;;;;;84.60;48.67;;;;;;;-3.70;100.00;99041.53;5029178;28;20033;-79
2022/12/16 02:28:57;;;;;;;92.15;48.30;;;;;;;-3.74;100.00;99039.00;5029178;28;20021;-79
2022/12/16 02:31:34;;;;;;;111.57;55.25;;;;;;;-3.81;100.00;99035.59;5029026;28;20413;-79
2022/12/16 02:34:29;;;;;;;95.78;50.42;;;;;;;-3.88;100.00;99018.59;5028713;28;20108;-79
2022/12/16 02:37:05;;;;;;;105.97;53.83;;;;;;;-3.86;100.00;99020.31;5028579;28;20432;-79
2022/12/16 02:39:38;;;;;;;96.57;52.58;;;;;;;-3.88;100.00;99022.00;5012474;28;20444;-79
2022/12/16 02:42:12;;;;;;;103.10;53.33;;;;;;;-3.88;100.00;99032.16;5028724;28;20489;-79
2022/12/16 02:44:53;;;;;;;99.00;54.80;;;;;;;-3.96;100.00;99026.25;5028467;28;20026;-79
2022/12/16 02:47:19;;;;;;;99.10;54.85;;;;;;;-3.95;100.00;99025.41;5028921;28;20037;-79
2022/12/16 02:49:47;;;;;;;99.72;55.45;;;;;;;-3.93;100.00;99023.69;5028573;28;20071;-79
2022/12/16 02:52:14;;;;;;;99.57;56.83;;;;;;;-3.96;100.00;99010.13;5030886;28;20477;-79
2022/12/16 02:54:40;;;;;;;103.38;54.40;;;;;;;-3.96;100.00;99015.19;5031161;28;20017;-79
2022/12/16 02:57:30;;;;;;;114.63;60.40;;;;;;;-3.97;100.00;99008.41;5031626;28;20029;-79
2022/12/16 03:00:01;;;;;;;114.97;58.85;;;;;;;-4.01;100.00;99010.09;5032762;28;20052;-79
2022/12/16 03:02:40;;;;;;;108.10;58.55;;;;;;;-4.01;100.00;99008.41;5034926;28;20022;-79
2022/12/16 03:05:14;;;;;;;111.45;58.28;;;;;;;-4.04;100.00;99008.44;5034851;28;20076;-79
2022/12/16 03:07:42;;;;;;;104.65;57.22;;;;;;;-4.04;100.00;99008.44;5034947;28;20412;-79
2022/12/16 03:10:13;;;;;;;100.00;53.15;;;;;;;-4.07;100.00;98994.84;5034528;28;20055;-79
2022/12/16 03:12:42;;;;;;;100.63;54.67;;;;;;;-4.09;100.00;98989.78;5034416;28;20032;-79
2022/12/16 03:15:09;;;;;;;98.07;54.22;;;;;;;-4.10;100.00;98993.16;5034571;28;20017;-79
2022/12/16 03:17:36;;;;;;;101.65;54.75;;;;;;;-4.13;100.00;98985.53;5034046;28;20439;-79
2022/12/16 03:20:11;;;;;;;96.15;53.25;;;;;;;-4.15;100.00;98982.13;5049824;28;20021;-79
2022/12/16 03:22:41;;;;;;;97.75;52.97;;;;;;;-4.10;100.00;98994.84;5032803;28;20075;-79
2022/12/16 03:25:08;;;;;;;104.10;55.05;;;;;;;-4.15;100.00;98987.22;5034293;28;20026;-79
2022/12/16 03:27:43;;;;;;;103.22;55.85;;;;;;;-4.15;100.00;98982.13;5034397;28;20029;-79
2022/12/16 03:30:14;;;;;;;100.03;54.30;;;;;;;-4.11;100.00;98988.91;5034453;28;20112;-79
2022/12/16 03:32:49;;;;;;;108.07;55.58;;;;;;;-4.12;100.00;98997.41;5034006;28;20527;-79
2022/12/16 03:35:20;;;;;;;106.00;56.78;;;;;;;-4.14;100.00;98988.06;5033888;28;20047;-79
2022/12/16 03:37:48;;;;;;;131.23;66.60;;;;;;;-4.16;100.00;98979.59;5034048;28;20030;-79
2022/12/16 03:40:15;;;;;;;118.97;63.50;;;;;;;-4.19;100.00;98969.41;5034333;28;20037;-79
2022/12/16 03:42:42;;;;;;;109.43;58.47;;;;;;;-4.21;100.00;98971.06;5033842;28;20100;-79
2022/12/16 03:45:13;;;;;;;102.50;57.33;;;;;;;-4.27;100.00;98956.66;5034090;28;20022;-79
2022/12/16 03:47:38;;;;;;;112.18;61.97;;;;;;;-4.37;100.00;98953.28;5032309;28;20028;-79
2022/12/16 03:50:04;;;;;;;105.45;57.40;;;;;;;-4.27;100.00;98969.38;5034199;28;20310;-79
2022/12/16 03:52:29;;;;;;;104.45;59.70;;;;;;;-4.21;100.00;98984.66;5033991;28;20031;-79
2022/12/16 03:54:55;;;;;;;100.32;57.00;;;;;;;-4.22;100.00;98977.84;5033723;28;20079;-79
2022/12/16 03:57:21;;;;;;;103.55;57.70;;;;;;;-4.25;100.00;98975.34;5033767;28;20024;-79
2022/12/16 03:59:46;;;;;;;98.78;59.22;;;;;;;-4.27;100.00;98961.75;5033399;28;20025;-79
2022/12/16 04:02:11;;;;;;;97.47;56.58;;;;;;;-4.22;100.00;98972.78;5033402;28;20079;-79
2022/12/16 04:04:36;;;;;;;110.18;61.85;;;;;;;-4.22;100.00;98992.28;5033818;28;20441;-79
2022/12/16 04:07:20;;;;;;;100.95;57.10;;;;;;;-4.25;100.00;98993.13;5033630;28;20048;-79
2022/12/16 04:09:46;;;;;;;104.05;58.13;;;;;;;-4.30;100.00;98987.16;5031892;28;20428;-79
2022/12/16 04:25:58;;;;;;;103.72;56.95;;;;;;;-4.30;100.00;98997.34;5032848;28;20039;-79
2022/12/16 04:28:23;;;;;;;105.40;57.42;;;;;;;-4.36;100.00;98988.00;5033667;28;20524;-79
2022/12/16 04:30:48;;;;;;;98.13;56.33;;;;;;;-4.33;100.00;98992.25;5032892;28;20071;-79
